sensor_id;sensor_type;location;lat;lon;timestamp;P1;durP1;ratioP1;P2;durP2;ratioP2
22922;SDS011;11627;51.322;22.816;2023-02-28T00:01:31;11.30;;;4.03;;
22922;SDS011;11627;51.322;22.816;2023-02-28T00:03:59;11.82;;;4.20;;
22922;SDS011;11627;51.322;22.816;2023-02-28T00:06:25;8.85;;;3.97;;
22922;SDS011;11627;51.322;22.816;2023-02-28T00:08:52;9.75;;;3.92;;
22922;SDS011;11627;51.322;22.816;2023-02-28T00:11:19;13.05;;;4.20;;
22922;SDS011;11627;51.322;22.816;2023-02-28T00:13:48;9.02;;;4.13;;
22922;SDS011;11627;51.322;22.816;2023-02-28T00:16:20;9.73;;;4.22;;
22922;SDS011;11627;51.322;22.816;2023-02-28T00:18:50;9.57;;;3.97;;
22922;SDS011;11627;51.322;22.816;2023-02-28T00:21:17;10.90;;;4.30;;
22922;SDS011;11627;51.322;22.816;2023-02-28T00:23:46;10.15;;;4.15;;
22922;SDS011;11627;51.322;22.816;2023-02-28T00:26:13;9.05;;;4.68;;
22922;SDS011;11627;51.322;22.816;2023-02-28T00:28:39;12.50;;;4.30;;
22922;SDS011;11627;51.322;22.816;2023-02-28T00:31:06;7.63;;;4.55;;
22922;SDS011;11627;51.322;22.816;2023-02-28T00:33:34;7.40;;;3.75;;
22922;SDS011;11627;51.322;22.816;2023-02-28T00:36:06;10.80;;;4.32;;
22922;SDS011;11627;51.322;22.816;2023-02-28T00:38:36;10.57;;;4.25;;
22922;SDS011;11627;51.322;22.816;2023-02-28T00:41:04;10.15;;;4.25;;
22922;SDS011;11627;51.322;22.816;2023-02-28T00:43:37;8.82;;;4.00;;
22922;SDS011;11627;51.322;22.816;2023-02-28T00:46:06;8.43;;;4.45;;
22922;SDS011;11627;51.322;22.816;2023-02-28T00:48:36;8.90;;;4.15;;
22922;SDS011;11627;51.322;22.816;2023-02-28T00:51:13;9.95;;;4.05;;
22922;SDS011;11627;51.322;22.816;2023-02-28T00:53:41;8.90;;;4.15;;
22922;SDS011;11627;51.322;22.816;2023-02-28T00:56:09;9.43;;;4.15;;
22922;SDS011;11627;51.322;22.816;2023-02-28T00:58:36;9.77;;;4.47;;
22922;SDS011;11627;51.322;22.816;2023-02-28T01:01:03;9.25;;;4.15;;
22922;SDS011;11627;51.322;22.816;2023-02-28T01:03:30;10.05;;;4.55;;
22922;SDS011;11627;51.322;22.816;2023-02-28T01:05:56;9.98;;;4.20;;
22922;SDS011;11627;51.322;22.816;2023-02-28T01:08:24;10.82;;;4.88;;
22922;SDS011;11627;51.322;22.816;2023-02-28T01:11:11;12.88;;;4.75;;
22922;SDS011;11627;51.322;22.816;2023-02-28T01:13:44;9.50;;;4.72;;
22922;SDS011;11627;51.322;22.816;2023-02-28T01:16:12;16.67;;;5.53;;
22922;SDS011;11627;51.322;22.816;2023-02-28T01:18:39;17.05;;;7.63;;
22922;SDS011;11627;51.322;22.816;2023-02-28T01:21:10;28.00;;;9.13;;
22922;SDS011;11627;51.322;22.816;2023-02-28T01:23:44;22.95;;;9.23;;
22922;SDS011;11627;51.322;22.816;2023-02-28T01:26:14;19.38;;;7.28;;
22922;SDS011;11627;51.322;22.816;2023-02-28T01:28:46;16.00;;;6.60;;
22922;SDS011;11627;51.322;22.816;2023-02-28T01:31:16;18.95;;;6.78;;
22922;SDS011;11627;51.322;22.816;2023-02-28T01:33:43;18.42;;;6.45;;
22922;SDS011;11627;51.322;22.816;2023-02-28T01:36:16;14.70;;;5.40;;
22922;SDS011;11627;51.322;22.816;2023-02-28T01:38:46;14.50;;;5.40;;
22922;SDS011;11627;51.322;22.816;2023-02-28T01:41:17;13.73;;;5.22;;
22922;SDS011;11627;51.322;22.816;2023-02-28T01:46:15;12.85;;;5.45;;
22922;SDS011;11627;51.322;22.816;2023-02-28T01:48:46;12.15;;;5.30;;
22922;SDS011;11627;51.322;22.816;2023-02-28T01:51:51;15.38;;;5.97;;
22922;SDS011;11627;51.322;22.816;2023-02-28T01:54:20;15.90;;;5.53;;
22922;SDS011;11627;51.322;22.816;2023-02-28T01:56:51;15.80;;;5.30;;
22922;SDS011;11627;51.322;22.816;2023-02-28T01:59:22;10.77;;;4.88;;
22922;SDS011;11627;51.322;22.816;2023-02-28T02:02:10;11.80;;;5.43;;
22922;SDS011;11627;51.322;22.816;2023-02-28T02:04:41;15.00;;;5.47;;
22922;SDS011;11627;51.322;22.816;2023-02-28T02:07:17;13.93;;;5.30;;
22922;SDS011;11627;51.322;22.816;2023-02-28T02:09:45;11.73;;;5.20;;
22922;SDS011;11627;51.322;22.816;2023-02-28T02:12:21;11.18;;;5.13;;
22922;SDS011;11627;51.322;22.816;2023-02-28T02:15:05;10.98;;;5.07;;
22922;SDS011;11627;51.322;22.816;2023-02-28T02:17:40;11.65;;;5.40;;
22922;SDS011;11627;51.322;22.816;2023-02-28T02:35:28;15.35;;;5.68;;
22922;SDS011;11627;51.322;22.816;2023-02-28T02:41:35;17.30;;;6.45;;
22922;SDS011;11627;51.322;22.816;2023-02-28T02:44:30;18.83;;;7.32;;
22922;SDS011;11627;51.322;22.816;2023-02-28T02:47:08;18.58;;;6.95;;
22922;SDS011;11627;51.322;22.816;2023-02-28T02:49:42;23.10;;;8.65;;
22922;SDS011;11627;51.322;22.816;2023-02-28T02:52:17;16.70;;;7.25;;
22922;SDS011;11627;51.322;22.816;2023-02-28T02:54:50;17.73;;;6.50;;
22922;SDS011;11627;51.322;22.816;2023-02-28T02:57:21;11.65;;;5.85;;
22922;SDS011;11627;51.322;22.816;2023-02-28T02:59:55;14.75;;;5.78;;
22922;SDS011;11627;51.322;22.816;2023-02-28T03:02:23;11.13;;;5.57;;
22922;SDS011;11627;51.322;22.816;2023-02-28T03:04:53;12.82;;;6.20;;
22922;SDS011;11627;51.322;22.816;2023-02-28T03:07:53;13.75;;;6.13;;
22922;SDS011;11627;51.322;22.816;2023-02-28T03:10:30;16.50;;;5.90;;
22922;SDS011;11627;51.322;22.816;2023-02-28T03:22:29;15.05;;;5.20;;
22922;SDS011;11627;51.322;22.816;2023-02-28T03:25:27;11.40;;;5.00;;
22922;SDS011;11627;51.322;22.816;2023-02-28T03:31:19;12.52;;;5.05;;
22922;SDS011;11627;51.322;22.816;2023-02-28T03:34:04;11.68;;;5.07;;
22922;SDS011;11627;51.322;22.816;2023-02-28T03:36:42;13.85;;;5.90;;
22922;SDS011;11627;51.322;22.816;2023-02-28T03:39:20;13.23;;;5.20;;
22922;SDS011;11627;51.322;22.816;2023-02-28T03:42:09;12.57;;;5.15;;
22922;SDS011;11627;51.322;22.816;2023-02-28T03:44:42;13.70;;;5.03;;
22922;SDS011;11627;51.322;22.816;2023-02-28T03:47:42;13.90;;;6.38;;
22922;SDS011;11627;51.322;22.816;2023-02-28T03:50:22;12.40;;;5.30;;
22922;SDS011;11627;51.322;22.816;2023-02-28T03:55:47;17.50;;;6.50;;
22922;SDS011;11627;51.322;22.816;2023-02-28T03:58:36;17.77;;;6.45;;
22922;SDS011;11627;51.322;22.816;2023-02-28T04:03:59;13.93;;;6.30;;
22922;SDS011;11627;51.322;22.816;2023-02-28T04:06:26;17.58;;;6.45;;
22922;SDS011;11627;51.322;22.816;2023-02-28T04:08:56;14.05;;;6.47;;
22922;SDS011;11627;51.322;22.816;2023-02-28T04:11:29;12.50;;;5.80;;
22922;SDS011;11627;51.322;22.816;2023-02-28T04:14:15;14.02;;;5.72;;
22922;SDS011;11627;51.322;22.816;2023-02-28T04:16:44;13.52;;;5.50;;
22922;SDS011;11627;51.322;22.816;2023-02-28T04:19:14;14.25;;;5.75;;
22922;SDS011;11627;51.322;22.816;2023-02-28T04:21:53;15.70;;;6.15;;
22922;SDS011;11627;51.322;22.816;2023-02-28T04:24:25;19.23;;;6.00;;
22922;SDS011;11627;51.322;22.816;2023-02-28T04:26:54;15.02;;;5.90;;
22922;SDS011;11627;51.322;22.816;2023-02-28T04:31:59;10.95;;;5.50;;
22922;SDS011;11627;51.322;22.816;2023-02-28T04:34:29;12.98;;;5.82;;
22922;SDS011;11627;51.322;22.816;2023-02-28T04:36:57;13.57;;;5.65;;
22922;SDS011;11627;51.322;22.816;2023-02-28T04:39:27;13.25;;;5.35;;
22922;SDS011;11627;51.322;22.816;2023-02-28T04:41:54;13.13;;;5.80;;
22922;SDS011;11627;51.322;22.816;2023-02-28T04:44:23;10.15;;;4.82;;
22922;SDS011;11627;51.322;22.816;2023-02-28T04:46:50;13.30;;;5.32;;
22922;SDS011;11627;51.322;22.816;2023-02-28T04:49:17;15.80;;;6.15;;
22922;SDS011;11627;51.322;22.816;2023-02-28T04:51:43;12.93;;;5.82;;
22922;SDS011;11627;51.322;22.816;2023-02-28T04:54:11;11.85;;;5.70;;
22922;SDS011;11627;51.322;22.816;2023-02-28T04:56:40;13.50;;;5.75;;
22922;SDS011;11627;51.322;22.816;2023-02-28T04:59:08;15.25;;;6.00;;
22922;SDS011;11627;51.322;22.816;2023-02-28T05:01:36;13.02;;;5.40;;
22922;SDS011;11627;51.322;22.816;2023-02-28T05:04:04;13.50;;;6.32;;
22922;SDS011;11627;51.322;22.816;2023-02-28T05:06:32;14.77;;;5.85;;
22922;SDS011;11627;51.322;22.816;2023-02-28T05:09:00;10.60;;;4.88;;
22922;SDS011;11627;51.322;22.816;2023-02-28T05:11:31;12.68;;;5.55;;
22922;SDS011;11627;51.322;22.816;2023-02-28T05:14:11;14.73;;;7.10;;
22922;SDS011;11627;51.322;22.816;2023-02-28T05:16:41;14.30;;;6.25;;
22922;SDS011;11627;51.322;22.816;2023-02-28T05:19:08;16.05;;;6.57;;
22922;SDS011;11627;51.322;22.816;2023-02-28T05:24:20;13.45;;;5.65;;
22922;SDS011;11627;51.322;22.816;2023-02-28T05:26:50;13.25;;;6.10;;
22922;SDS011;11627;51.322;22.816;2023-02-28T05:29:18;14.70;;;6.25;;
22922;SDS011;11627;51.322;22.816;2023-02-28T05:31:47;12.85;;;5.78;;
22922;SDS011;11627;51.322;22.816;2023-02-28T05:34:14;16.40;;;6.65;;
22922;SDS011;11627;51.322;22.816;2023-02-28T05:36:43;17.90;;;6.13;;
22922;SDS011;11627;51.322;22.816;2023-02-28T05:39:10;20.30;;;6.95;;
22922;SDS011;11627;51.322;22.816;2023-02-28T05:41:56;37.05;;;10.75;;
22922;SDS011;11627;51.322;22.816;2023-02-28T05:44:23;39.33;;;10.48;;
22922;SDS011;11627;51.322;22.816;2023-02-28T05:46:51;46.70;;;11.27;;
22922;SDS011;11627;51.322;22.816;2023-02-28T05:49:18;47.90;;;12.32;;
22922;SDS011;11627;51.322;22.816;2023-02-28T05:51:45;40.45;;;11.07;;
22922;SDS011;11627;51.322;22.816;2023-02-28T05:54:13;29.70;;;10.30;;
22922;SDS011;11627;51.322;22.816;2023-02-28T05:56:41;26.60;;;9.73;;
22922;SDS011;11627;51.322;22.816;2023-02-28T05:59:27;30.55;;;9.63;;
22922;SDS011;11627;51.322;22.816;2023-02-28T06:01:54;32.28;;;9.10;;
22922;SDS011;11627;51.322;22.816;2023-02-28T06:04:21;21.60;;;8.38;;
22922;SDS011;11627;51.322;22.816;2023-02-28T06:06:50;17.33;;;7.47;;
22922;SDS011;11627;51.322;22.816;2023-02-28T06:09:35;16.67;;;7.47;;
22922;SDS011;11627;51.322;22.816;2023-02-28T06:12:04;19.25;;;7.80;;
22922;SDS011;11627;51.322;22.816;2023-02-28T06:14:36;22.45;;;9.10;;
22922;SDS011;11627;51.322;22.816;2023-02-28T06:17:12;23.83;;;9.07;;
22922;SDS011;11627;51.322;22.816;2023-02-28T06:19:37;20.30;;;7.35;;
22922;SDS011;11627;51.322;22.816;2023-02-28T06:22:08;19.23;;;7.80;;
22922;SDS011;11627;51.322;22.816;2023-02-28T06:24:36;14.77;;;6.43;;
22922;SDS011;11627;51.322;22.816;2023-02-28T06:27:03;14.25;;;6.40;;
22922;SDS011;11627;51.322;22.816;2023-02-28T06:29:31;16.05;;;6.28;;
22922;SDS011;11627;51.322;22.816;2023-02-28T06:32:02;12.82;;;5.88;;
22922;SDS011;11627;51.322;22.816;2023-02-28T06:34:30;12.77;;;5.78;;
22922;SDS011;11627;51.322;22.816;2023-02-28T06:36:58;17.00;;;6.05;;
22922;SDS011;11627;51.322;22.816;2023-02-28T06:39:29;11.10;;;6.18;;
22922;SDS011;11627;51.322;22.816;2023-02-28T06:42:01;13.65;;;6.07;;
22922;SDS011;11627;51.322;22.816;2023-02-28T06:44:28;11.77;;;5.65;;
22922;SDS011;11627;51.322;22.816;2023-02-28T06:47:00;9.52;;;4.97;;
22922;SDS011;11627;51.322;22.816;2023-02-28T06:49:29;10.02;;;5.20;;
22922;SDS011;11627;51.322;22.816;2023-02-28T06:51:57;8.48;;;5.03;;
22922;SDS011;11627;51.322;22.816;2023-02-28T06:54:26;9.00;;;4.72;;
22922;SDS011;11627;51.322;22.816;2023-02-28T06:56:54;11.15;;;4.80;;
22922;SDS011;11627;51.322;22.816;2023-02-28T06:59:19;8.82;;;4.65;;
22922;SDS011;11627;51.322;22.816;2023-02-28T07:01:47;10.52;;;4.95;;
22922;SDS011;11627;51.322;22.816;2023-02-28T07:04:15;10.27;;;5.03;;
22922;SDS011;11627;51.322;22.816;2023-02-28T07:06:41;8.02;;;4.93;;
22922;SDS011;11627;51.322;22.816;2023-02-28T07:09:08;10.23;;;4.90;;
22922;SDS011;11627;51.322;22.816;2023-02-28T07:11:36;12.75;;;5.13;;
22922;SDS011;11627;51.322;22.816;2023-02-28T07:14:04;9.65;;;5.10;;
22922;SDS011;11627;51.322;22.816;2023-02-28T07:16:33;9.02;;;4.88;;
22922;SDS011;11627;51.322;22.816;2023-02-28T07:19:01;8.35;;;4.50;;
22922;SDS011;11627;51.322;22.816;2023-02-28T07:21:30;9.68;;;5.18;;
22922;SDS011;11627;51.322;22.816;2023-02-28T07:23:58;10.57;;;5.03;;
22922;SDS011;11627;51.322;22.816;2023-02-28T07:26:25;8.02;;;5.00;;
22922;SDS011;11627;51.322;22.816;2023-02-28T07:28:52;9.05;;;4.53;;
22922;SDS011;11627;51.322;22.816;2023-02-28T07:31:19;10.98;;;4.70;;
22922;SDS011;11627;51.322;22.816;2023-02-28T07:33:44;11.27;;;5.00;;
22922;SDS011;11627;51.322;22.816;2023-02-28T07:36:15;10.10;;;4.70;;
22922;SDS011;11627;51.322;22.816;2023-02-28T07:38:46;6.70;;;3.97;;
22922;SDS011;11627;51.322;22.816;2023-02-28T07:41:22;8.40;;;4.35;;
22922;SDS011;11627;51.322;22.816;2023-02-28T07:43:52;10.45;;;5.22;;
22922;SDS011;11627;51.322;22.816;2023-02-28T07:46:22;7.28;;;4.30;;
22922;SDS011;11627;51.322;22.816;2023-02-28T07:48:49;10.23;;;5.20;;
22922;SDS011;11627;51.322;22.816;2023-02-28T07:51:18;7.35;;;4.20;;
22922;SDS011;11627;51.322;22.816;2023-02-28T07:53:47;9.75;;;4.70;;
22922;SDS011;11627;51.322;22.816;2023-02-28T07:56:14;8.02;;;4.45;;
22922;SDS011;11627;51.322;22.816;2023-02-28T07:58:41;8.48;;;4.45;;
22922;SDS011;11627;51.322;22.816;2023-02-28T08:01:09;9.38;;;4.45;;
22922;SDS011;11627;51.322;22.816;2023-02-28T08:03:37;9.52;;;4.63;;
22922;SDS011;11627;51.322;22.816;2023-02-28T08:06:07;9.15;;;4.07;;
22922;SDS011;11627;51.322;22.816;2023-02-28T08:08:41;8.93;;;4.55;;
22922;SDS011;11627;51.322;22.816;2023-02-28T08:11:12;9.23;;;4.13;;
22922;SDS011;11627;51.322;22.816;2023-02-28T08:13:41;9.73;;;4.55;;
22922;SDS011;11627;51.322;22.816;2023-02-28T08:16:11;5.75;;;3.80;;
22922;SDS011;11627;51.322;22.816;2023-02-28T08:18:51;9.25;;;4.57;;
22922;SDS011;11627;51.322;22.816;2023-02-28T08:21:19;9.10;;;4.25;;
22922;SDS011;11627;51.322;22.816;2023-02-28T08:23:48;8.10;;;4.57;;
22922;SDS011;11627;51.322;22.816;2023-02-28T08:26:19;12.60;;;5.00;;
22922;SDS011;11627;51.322;22.816;2023-02-28T08:28:46;11.45;;;4.75;;
22922;SDS011;11627;51.322;22.816;2023-02-28T08:31:13;9.05;;;4.63;;
22922;SDS011;11627;51.322;22.816;2023-02-28T08:33:42;11.05;;;5.10;;
22922;SDS011;11627;51.322;22.816;2023-02-28T08:36:10;10.23;;;5.25;;
22922;SDS011;11627;51.322;22.816;2023-02-28T08:38:37;7.60;;;4.53;;
22922;SDS011;11627;51.322;22.816;2023-02-28T08:41:06;8.65;;;5.13;;
22922;SDS011;11627;51.322;22.816;2023-02-28T08:43:43;7.85;;;4.75;;
22922;SDS011;11627;51.322;22.816;2023-02-28T08:46:11;10.70;;;5.20;;
22922;SDS011;11627;51.322;22.816;2023-02-28T08:48:39;7.35;;;4.55;;
22922;SDS011;11627;51.322;22.816;2023-02-28T08:51:10;8.27;;;5.10;;
22922;SDS011;11627;51.322;22.816;2023-02-28T08:53:43;9.35;;;4.95;;
22922;SDS011;11627;51.322;22.816;2023-02-28T08:56:13;11.98;;;4.78;;
22922;SDS011;11627;51.322;22.816;2023-02-28T08:58:46;9.82;;;4.97;;
22922;SDS011;11627;51.322;22.816;2023-02-28T09:01:23;8.45;;;4.63;;
22922;SDS011;11627;51.322;22.816;2023-02-28T09:03:55;10.25;;;5.43;;
22922;SDS011;11627;51.322;22.816;2023-02-28T09:06:25;9.88;;;4.90;;
22922;SDS011;11627;51.322;22.816;2023-02-28T09:08:51;9.60;;;5.07;;
22922;SDS011;11627;51.322;22.816;2023-02-28T09:11:17;12.05;;;5.20;;
22922;SDS011;11627;51.322;22.816;2023-02-28T09:13:47;9.10;;;5.10;;
22922;SDS011;11627;51.322;22.816;2023-02-28T09:16:14;10.20;;;4.82;;
22922;SDS011;11627;51.322;22.816;2023-02-28T09:18:52;8.25;;;4.55;;
22922;SDS011;11627;51.322;22.816;2023-02-28T09:21:20;10.25;;;5.35;;
22922;SDS011;11627;51.322;22.816;2023-02-28T09:23:48;9.50;;;5.20;;
22922;SDS011;11627;51.322;22.816;2023-02-28T09:26:19;13.73;;;5.53;;
22922;SDS011;11627;51.322;22.816;2023-02-28T09:28:59;10.80;;;5.22;;
22922;SDS011;11627;51.322;22.816;2023-02-28T09:31:27;11.82;;;5.38;;
22922;SDS011;11627;51.322;22.816;2023-02-28T09:33:55;10.32;;;5.20;;
22922;SDS011;11627;51.322;22.816;2023-02-28T09:36:27;14.25;;;6.43;;
22922;SDS011;11627;51.322;22.816;2023-02-28T09:38:57;10.40;;;6.20;;
22922;SDS011;11627;51.322;22.816;2023-02-28T09:41:27;10.57;;;5.63;;
22922;SDS011;11627;51.322;22.816;2023-02-28T09:44:24;11.35;;;5.90;;
22922;SDS011;11627;51.322;22.816;2023-02-28T09:46:57;11.68;;;6.10;;
22922;SDS011;11627;51.322;22.816;2023-02-28T09:49:51;13.32;;;7.15;;
22922;SDS011;11627;51.322;22.816;2023-02-28T09:52:19;9.77;;;5.70;;
22922;SDS011;11627;51.322;22.816;2023-02-28T09:55:08;13.68;;;6.10;;
22922;SDS011;11627;51.322;22.816;2023-02-28T09:58:14;11.65;;;5.90;;
22922;SDS011;11627;51.322;22.816;2023-02-28T10:01:42;11.02;;;5.72;;
22922;SDS011;11627;51.322;22.816;2023-02-28T10:04:16;12.75;;;6.43;;
22922;SDS011;11627;51.322;22.816;2023-02-28T10:07:07;12.43;;;6.32;;
22922;SDS011;11627;51.322;22.816;2023-02-28T10:09:52;10.52;;;5.93;;
22922;SDS011;11627;51.322;22.816;2023-02-28T10:12:21;12.38;;;6.05;;
22922;SDS011;11627;51.322;22.816;2023-02-28T10:14:49;11.25;;;5.90;;
22922;SDS011;11627;51.322;22.816;2023-02-28T10:17:20;12.00;;;6.45;;
22922;SDS011;11627;51.322;22.816;2023-02-28T10:22:38;14.02;;;7.03;;
22922;SDS011;11627;51.322;22.816;2023-02-28T10:25:26;12.05;;;6.65;;
22922;SDS011;11627;51.322;22.816;2023-02-28T10:27:53;12.82;;;5.97;;
22922;SDS011;11627;51.322;22.816;2023-02-28T10:30:56;12.88;;;6.55;;
22922;SDS011;11627;51.322;22.816;2023-02-28T10:33:24;12.77;;;6.43;;
22922;SDS011;11627;51.322;22.816;2023-02-28T10:36:17;12.98;;;6.30;;
22922;SDS011;11627;51.322;22.816;2023-02-28T10:38:46;11.70;;;6.75;;
22922;SDS011;11627;51.322;22.816;2023-02-28T10:41:14;13.30;;;6.88;;
22922;SDS011;11627;51.322;22.816;2023-02-28T10:44:20;15.52;;;6.38;;
22922;SDS011;11627;51.322;22.816;2023-02-28T10:46:47;14.35;;;7.18;;
22922;SDS011;11627;51.322;22.816;2023-02-28T10:49:17;14.02;;;6.93;;
22922;SDS011;11627;51.322;22.816;2023-02-28T10:51:47;13.13;;;6.80;;
22922;SDS011;11627;51.322;22.816;2023-02-28T10:54:34;13.02;;;6.70;;
22922;SDS011;11627;51.322;22.816;2023-02-28T10:57:20;13.23;;;6.95;;
22922;SDS011;11627;51.322;22.816;2023-02-28T11:00:07;11.90;;;6.05;;
22922;SDS011;11627;51.322;22.816;2023-02-28T11:02:41;12.98;;;7.35;;
22922;SDS011;11627;51.322;22.816;2023-02-28T11:07:54;17.33;;;7.40;;
22922;SDS011;11627;51.322;22.816;2023-02-28T11:10:24;16.67;;;7.68;;
22922;SDS011;11627;51.322;22.816;2023-02-28T11:12:55;14.57;;;7.55;;
22922;SDS011;11627;51.322;22.816;2023-02-28T11:15:35;15.13;;;7.65;;
22922;SDS011;11627;51.322;22.816;2023-02-28T11:20:51;19.42;;;8.10;;
22922;SDS011;11627;51.322;22.816;2023-02-28T11:23:21;13.95;;;7.47;;
22922;SDS011;11627;51.322;22.816;2023-02-28T11:26:05;24.27;;;9.55;;
22922;SDS011;11627;51.322;22.816;2023-02-28T11:28:37;16.05;;;8.50;;
22922;SDS011;11627;51.322;22.816;2023-02-28T11:31:17;16.38;;;7.53;;
22922;SDS011;11627;51.322;22.816;2023-02-28T11:33:54;13.82;;;6.93;;
22922;SDS011;11627;51.322;22.816;2023-02-28T11:36:26;13.23;;;7.10;;
22922;SDS011;11627;51.322;22.816;2023-02-28T11:39:10;13.27;;;7.18;;
22922;SDS011;11627;51.322;22.816;2023-02-28T11:47:59;15.65;;;7.18;;
22922;SDS011;11627;51.322;22.816;2023-02-28T11:59:46;14.60;;;7.20;;
22922;SDS011;11627;51.322;22.816;2023-02-28T12:02:29;16.23;;;7.60;;
22922;SDS011;11627;51.322;22.816;2023-02-28T12:11:31;14.05;;;7.22;;
22922;SDS011;11627;51.322;22.816;2023-02-28T12:17:52;11.07;;;6.90;;
22922;SDS011;11627;51.322;22.816;2023-02-28T12:20:33;13.63;;;7.15;;
22922;SDS011;11627;51.322;22.816;2023-02-28T12:28:51;14.23;;;7.45;;
22922;SDS011;11627;51.322;22.816;2023-02-28T12:34:43;13.90;;;7.30;;
22922;SDS011;11627;51.322;22.816;2023-02-28T12:37:19;15.02;;;6.57;;
22922;SDS011;11627;51.322;22.816;2023-02-28T12:40:00;14.38;;;7.78;;
22922;SDS011;11627;51.322;22.816;2023-02-28T12:42:32;14.75;;;8.20;;
22922;SDS011;11627;51.322;22.816;2023-02-28T12:47:40;15.05;;;8.10;;
22922;SDS011;11627;51.322;22.816;2023-02-28T12:50:14;14.60;;;7.95;;
22922;SDS011;11627;51.322;22.816;2023-02-28T12:58:47;12.93;;;7.45;;
22922;SDS011;11627;51.322;22.816;2023-02-28T13:10:37;14.10;;;7.35;;
22922;SDS011;11627;51.322;22.816;2023-02-28T13:13:13;12.82;;;7.47;;
22922;SDS011;11627;51.322;22.816;2023-02-28T13:15:56;15.52;;;8.00;;
22922;SDS011;11627;51.322;22.816;2023-02-28T13:21:10;14.68;;;7.60;;
22922;SDS011;11627;51.322;22.816;2023-02-28T13:34:36;12.43;;;6.93;;
22922;SDS011;11627;51.322;22.816;2023-02-28T13:39:57;12.88;;;7.05;;
22922;SDS011;11627;51.322;22.816;2023-02-28T13:48:23;10.30;;;6.63;;
22922;SDS011;11627;51.322;22.816;2023-02-28T13:50:38;11.52;;;6.78;;
22922;SDS011;11627;51.322;22.816;2023-02-28T13:56:40;12.93;;;6.82;;
22922;SDS011;11627;51.322;22.816;2023-02-28T13:59:17;14.05;;;7.22;;
22922;SDS011;11627;51.322;22.816;2023-02-28T14:02:03;12.43;;;7.15;;
22922;SDS011;11627;51.322;22.816;2023-02-28T14:05:19;13.32;;;7.18;;
22922;SDS011;11627;51.322;22.816;2023-02-28T14:07:58;11.57;;;7.50;;
22922;SDS011;11627;51.322;22.816;2023-02-28T14:10:38;11.82;;;7.30;;
22922;SDS011;11627;51.322;22.816;2023-02-28T14:16:13;11.15;;;7.45;;
22922;SDS011;11627;51.322;22.816;2023-02-28T14:21:43;11.50;;;8.02;;
22922;SDS011;11627;51.322;22.816;2023-02-28T14:30:29;14.52;;;8.45;;
22922;SDS011;11627;51.322;22.816;2023-02-28T14:39:22;13.57;;;8.65;;
22922;SDS011;11627;51.322;22.816;2023-02-28T14:41:58;20.98;;;10.75;;
22922;SDS011;11627;51.322;22.816;2023-02-28T14:44:30;16.38;;;8.98;;
22922;SDS011;11627;51.322;22.816;2023-02-28T14:46:58;16.75;;;9.27;;
22922;SDS011;11627;51.322;22.816;2023-02-28T14:49:34;15.32;;;8.93;;
22922;SDS011;11627;51.322;22.816;2023-02-28T14:52:16;18.17;;;8.95;;
22922;SDS011;11627;51.322;22.816;2023-02-28T14:55:00;14.40;;;8.98;;
22922;SDS011;11627;51.322;22.816;2023-02-28T14:57:38;15.52;;;8.43;;
22922;SDS011;11627;51.322;22.816;2023-02-28T15:00:28;15.20;;;8.52;;
22922;SDS011;11627;51.322;22.816;2023-02-28T15:05:57;16.40;;;8.05;;
22922;SDS011;11627;51.322;22.816;2023-02-28T15:08:25;14.75;;;8.15;;
22922;SDS011;11627;51.322;22.816;2023-02-28T15:11:01;16.60;;;8.60;;
22922;SDS011;11627;51.322;22.816;2023-02-28T15:21:58;30.70;;;14.60;;
22922;SDS011;11627;51.322;22.816;2023-02-28T15:24:48;31.67;;;13.23;;
22922;SDS011;11627;51.322;22.816;2023-02-28T15:27:27;17.38;;;9.63;;
22922;SDS011;11627;51.322;22.816;2023-02-28T15:29:59;17.38;;;9.38;;
22922;SDS011;11627;51.322;22.816;2023-02-28T15:32:44;18.85;;;9.48;;
22922;SDS011;11627;51.322;22.816;2023-02-28T15:35:28;21.25;;;9.45;;
22922;SDS011;11627;51.322;22.816;2023-02-28T15:40:52;27.58;;;13.32;;
22922;SDS011;11627;51.322;22.816;2023-02-28T15:43:24;19.80;;;11.30;;
22922;SDS011;11627;51.322;22.816;2023-02-28T15:46:03;38.65;;;15.43;;
22922;SDS011;11627;51.322;22.816;2023-02-28T15:48:54;26.52;;;12.25;;
22922;SDS011;11627;51.322;22.816;2023-02-28T15:51:47;30.35;;;13.32;;
22922;SDS011;11627;51.322;22.816;2023-02-28T15:54:35;38.28;;;16.90;;
22922;SDS011;11627;51.322;22.816;2023-02-28T15:57:03;31.33;;;13.35;;
22922;SDS011;11627;51.322;22.816;2023-02-28T15:59:35;36.22;;;15.23;;
22922;SDS011;11627;51.322;22.816;2023-02-28T16:02:16;35.25;;;15.15;;
22922;SDS011;11627;51.322;22.816;2023-02-28T16:07:33;34.65;;;14.77;;
22922;SDS011;11627;51.322;22.816;2023-02-28T16:10:04;43.15;;;16.65;;
22922;SDS011;11627;51.322;22.816;2023-02-28T16:12:33;59.35;;;22.05;;
22922;SDS011;11627;51.322;22.816;2023-02-28T16:15:17;48.88;;;19.08;;
22922;SDS011;11627;51.322;22.816;2023-02-28T16:17:46;46.60;;;18.35;;
22922;SDS011;11627;51.322;22.816;2023-02-28T16:20:25;44.53;;;18.65;;
22922;SDS011;11627;51.322;22.816;2023-02-28T16:22:57;58.45;;;24.02;;
22922;SDS011;11627;51.322;22.816;2023-02-28T16:25:33;63.92;;;27.05;;
22922;SDS011;11627;51.322;22.816;2023-02-28T16:28:29;59.00;;;25.17;;
22922;SDS011;11627;51.322;22.816;2023-02-28T16:31:03;82.68;;;29.20;;
22922;SDS011;11627;51.322;22.816;2023-02-28T16:33:32;96.93;;;31.80;;
22922;SDS011;11627;51.322;22.816;2023-02-28T16:36:01;68.45;;;25.17;;
22922;SDS011;11627;51.322;22.816;2023-02-28T16:38:27;41.58;;;17.33;;
22922;SDS011;11627;51.322;22.816;2023-02-28T16:40:56;36.22;;;15.65;;
22922;SDS011;11627;51.322;22.816;2023-02-28T16:43:26;44.00;;;18.25;;
22922;SDS011;11627;51.322;22.816;2023-02-28T16:45:55;39.50;;;17.65;;
22922;SDS011;11627;51.322;22.816;2023-02-28T16:48:24;36.88;;;16.45;;
22922;SDS011;11627;51.322;22.816;2023-02-28T16:50:52;42.25;;;18.17;;
22922;SDS011;11627;51.322;22.816;2023-02-28T16:53:19;45.22;;;20.35;;
22922;SDS011;11627;51.322;22.816;2023-02-28T16:55:46;55.20;;;23.13;;
22922;SDS011;11627;51.322;22.816;2023-02-28T16:58:17;66.28;;;29.27;;
22922;SDS011;11627;51.322;22.816;2023-02-28T17:00:45;102.22;;;41.10;;
22922;SDS011;11627;51.322;22.816;2023-02-28T17:03:19;53.15;;;22.52;;
22922;SDS011;11627;51.322;22.816;2023-02-28T17:05:47;52.75;;;21.20;;
22922;SDS011;11627;51.322;22.816;2023-02-28T17:08:16;54.92;;;21.45;;
22922;SDS011;11627;51.322;22.816;2023-02-28T17:10:55;72.68;;;26.42;;
22922;SDS011;11627;51.322;22.816;2023-02-28T17:13:24;84.82;;;31.33;;
22922;SDS011;11627;51.322;22.816;2023-02-28T17:15:50;93.07;;;33.10;;
22922;SDS011;11627;51.322;22.816;2023-02-28T17:18:18;88.40;;;30.30;;
22922;SDS011;11627;51.322;22.816;2023-02-28T17:20:49;73.65;;;28.40;;
22922;SDS011;11627;51.322;22.816;2023-02-28T17:23:18;76.63;;;27.65;;
22922;SDS011;11627;51.322;22.816;2023-02-28T17:25:53;66.97;;;27.17;;
22922;SDS011;11627;51.322;22.816;2023-02-28T17:28:19;80.95;;;31.67;;
22922;SDS011;11627;51.322;22.816;2023-02-28T17:30:48;137.38;;;48.30;;
22922;SDS011;11627;51.322;22.816;2023-02-28T17:33:15;205.80;;;70.53;;
22922;SDS011;11627;51.322;22.816;2023-02-28T17:35:49;192.75;;;61.90;;
22922;SDS011;11627;51.322;22.816;2023-02-28T17:38:16;158.02;;;48.60;;
22922;SDS011;11627;51.322;22.816;2023-02-28T17:40:49;111.18;;;40.42;;
22922;SDS011;11627;51.322;22.816;2023-02-28T17:43:23;103.80;;;36.65;;